sensor_id;sensor_type;location;lat;lon;timestamp;P1;durP1;ratioP1;P2;durP2;ratioP2
71570;SDS011;59407;42.682;23.322;2023-12-20T05:43:14;85.80;;;36.85;;
71570;SDS011;59407;42.682;23.322;2023-12-20T05:45:40;102.75;;;44.00;;
71570;SDS011;59407;42.682;23.322;2023-12-20T05:48:05;96.82;;;40.90;;
71570;SDS011;59407;42.682;23.322;2023-12-20T05:50:32;85.82;;;40.08;;
71570;SDS011;59407;42.682;23.322;2023-12-20T05:52:59;75.70;;;37.25;;
71570;SDS011;59407;42.682;23.322;2023-12-20T05:55:25;93.70;;;42.03;;
71570;SDS011;59407;42.682;23.322;2023-12-20T05:57:50;107.03;;;46.88;;
71570;SDS011;59407;42.682;23.322;2023-12-20T06:00:17;100.72;;;44.58;;
71570;SDS011;59407;42.682;23.322;2023-12-20T06:02:44;103.30;;;44.75;;
71570;SDS011;59407;42.682;23.322;2023-12-20T06:05:11;98.47;;;43.13;;
71570;SDS011;59407;42.682;23.322;2023-12-20T06:07:39;105.20;;;45.35;;
71570;SDS011;59407;42.682;23.322;2023-12-20T06:10:05;105.97;;;43.50;;
71570;SDS011;59407;42.682;23.322;2023-12-20T06:12:31;85.20;;;39.45;;
71570;SDS011;59407;42.682;23.322;2023-12-20T06:14:58;77.57;;;37.22;;
71570;SDS011;59407;42.682;23.322;2023-12-20T06:17:25;100.82;;;41.33;;
71570;SDS011;59407;42.682;23.322;2023-12-20T06:19:52;121.00;;;47.90;;
71570;SDS011;59407;42.682;23.322;2023-12-20T06:22:18;104.70;;;45.22;;
71570;SDS011;59407;42.682;23.322;2023-12-20T06:24:44;112.55;;;44.53;;
71570;SDS011;59407;42.682;23.322;2023-12-20T06:27:14;97.10;;;41.95;;
71570;SDS011;59407;42.682;23.322;2023-12-20T06:29:48;103.88;;;46.67;;
71570;SDS011;59407;42.682;23.322;2023-12-20T06:32:20;94.57;;;38.40;;
71570;SDS011;59407;42.682;23.322;2023-12-20T06:34:45;97.00;;;40.17;;
71570;SDS011;59407;42.682;23.322;2023-12-20T06:37:12;84.57;;;39.15;;
71570;SDS011;59407;42.682;23.322;2023-12-20T06:39:40;118.28;;;49.00;;
71570;SDS011;59407;42.682;23.322;2023-12-20T06:42:07;86.93;;;41.10;;
71570;SDS011;59407;42.682;23.322;2023-12-20T06:44:41;107.30;;;44.23;;
71570;SDS011;59407;42.682;23.322;2023-12-20T06:47:12;98.72;;;41.30;;
71570;SDS011;59407;42.682;23.322;2023-12-20T06:49:42;102.65;;;45.05;;
71570;SDS011;59407;42.682;23.322;2023-12-20T06:52:48;99.57;;;39.00;;
71570;SDS011;59407;42.682;23.322;2023-12-20T06:55:27;115.72;;;41.20;;
71570;SDS011;59407;42.682;23.322;2023-12-20T06:57:53;104.83;;;41.40;;
71570;SDS011;59407;42.682;23.322;2023-12-20T07:00:37;94.55;;;38.30;;
71570;SDS011;59407;42.682;23.322;2023-12-20T07:03:03;83.00;;;39.35;;
71570;SDS011;59407;42.682;23.322;2023-12-20T07:05:29;99.17;;;39.83;;
71570;SDS011;59407;42.682;23.322;2023-12-20T07:07:56;82.40;;;36.13;;
71570;SDS011;59407;42.682;23.322;2023-12-20T07:10:22;88.32;;;39.85;;
71570;SDS011;59407;42.682;23.322;2023-12-20T07:15:19;84.13;;;37.42;;
71570;SDS011;59407;42.682;23.322;2023-12-20T07:18:03;92.93;;;41.17;;
71570;SDS011;59407;42.682;23.322;2023-12-20T07:20:29;98.73;;;43.50;;
71570;SDS011;59407;42.682;23.322;2023-12-20T07:22:55;87.57;;;38.20;;
71570;SDS011;59407;42.682;23.322;2023-12-20T07:25:20;93.00;;;42.33;;
71570;SDS011;59407;42.682;23.322;2023-12-20T07:27:46;83.30;;;38.47;;
71570;SDS011;59407;42.682;23.322;2023-12-20T07:30:15;87.50;;;39.58;;
71570;SDS011;59407;42.682;23.322;2023-12-20T07:33:03;91.65;;;39.85;;
71570;SDS011;59407;42.682;23.322;2023-12-20T07:36:19;98.75;;;41.63;;
71570;SDS011;59407;42.682;23.322;2023-12-20T07:38:58;104.82;;;44.47;;
71570;SDS011;59407;42.682;23.322;2023-12-20T07:42:01;96.22;;;38.72;;
71570;SDS011;59407;42.682;23.322;2023-12-20T07:44:26;101.38;;;42.10;;
71570;SDS011;59407;42.682;23.322;2023-12-20T07:46:53;99.55;;;42.47;;
71570;SDS011;59407;42.682;23.322;2023-12-20T07:49:19;94.38;;;40.75;;
71570;SDS011;59407;42.682;23.322;2023-12-20T07:51:48;107.57;;;43.88;;
71570;SDS011;59407;42.682;23.322;2023-12-20T07:54:13;95.23;;;44.27;;
71570;SDS011;59407;42.682;23.322;2023-12-20T07:56:48;86.90;;;38.92;;
71570;SDS011;59407;42.682;23.322;2023-12-20T07:59:36;98.75;;;38.70;;
71570;SDS011;59407;42.682;23.322;2023-12-20T08:02:02;89.10;;;40.10;;
71570;SDS011;59407;42.682;23.322;2023-12-20T08:04:27;85.50;;;39.40;;
71570;SDS011;59407;42.682;23.322;2023-12-20T08:06:54;106.78;;;46.00;;
71570;SDS011;59407;42.682;23.322;2023-12-20T08:09:28;94.95;;;42.55;;
71570;SDS011;59407;42.682;23.322;2023-12-20T08:11:57;79.10;;;37.88;;
71570;SDS011;59407;42.682;23.322;2023-12-20T08:24:27;92.82;;;36.90;;
71570;SDS011;59407;42.682;23.322;2023-12-20T08:31:00;73.82;;;37.13;;
71570;SDS011;59407;42.682;23.322;2023-12-20T09:04:02;78.10;;;38.55;;
71570;SDS011;59407;42.682;23.322;2023-12-20T09:06:48;75.63;;;38.67;;
71570;SDS011;59407;42.682;23.322;2023-12-20T09:16:30;75.82;;;35.75;;
71570;SDS011;59407;42.682;23.322;2023-12-20T09:25:32;72.65;;;33.35;;
71570;SDS011;59407;42.682;23.322;2023-12-20T09:28:30;76.78;;;35.80;;
71570;SDS011;59407;42.682;23.322;2023-12-20T09:31:03;59.17;;;30.17;;
71570;SDS011;59407;42.682;23.322;2023-12-20T09:33:33;68.78;;;32.40;;
71570;SDS011;59407;42.682;23.322;2023-12-20T09:35:59;72.38;;;33.63;;
71570;SDS011;59407;42.682;23.322;2023-12-20T09:38:27;55.78;;;31.20;;
71570;SDS011;59407;42.682;23.322;2023-12-20T09:41:01;63.47;;;31.07;;
71570;SDS011;59407;42.682;23.322;2023-12-20T09:43:29;69.88;;;33.72;;
71570;SDS011;59407;42.682;23.322;2023-12-20T09:45:57;73.57;;;34.40;;
71570;SDS011;59407;42.682;23.322;2023-12-20T09:48:29;78.07;;;33.10;;
71570;SDS011;59407;42.682;23.322;2023-12-20T09:50:56;79.40;;;35.70;;
71570;SDS011;59407;42.682;23.322;2023-12-20T09:53:22;77.43;;;34.50;;
71570;SDS011;59407;42.682;23.322;2023-12-20T09:55:49;78.28;;;34.85;;
71570;SDS011;59407;42.682;23.322;2023-12-20T09:58:19;75.95;;;33.53;;
71570;SDS011;59407;42.682;23.322;2023-12-20T10:00:46;87.20;;;34.80;;
71570;SDS011;59407;42.682;23.322;2023-12-20T10:03:16;77.93;;;32.33;;
71570;SDS011;59407;42.682;23.322;2023-12-20T10:05:43;72.23;;;31.00;;
71570;SDS011;59407;42.682;23.322;2023-12-20T10:08:11;74.10;;;33.97;;
71570;SDS011;59407;42.682;23.322;2023-12-20T10:10:39;72.45;;;35.67;;
71570;SDS011;59407;42.682;23.322;2023-12-20T10:13:06;82.63;;;34.40;;
71570;SDS011;59407;42.682;23.322;2023-12-20T10:15:33;82.13;;;41.38;;
71570;SDS011;59407;42.682;23.322;2023-12-20T10:18:12;75.05;;;31.45;;
71570;SDS011;59407;42.682;23.322;2023-12-20T10:20:41;78.65;;;32.25;;
71570;SDS011;59407;42.682;23.322;2023-12-20T10:23:31;76.75;;;33.38;;
71570;SDS011;59407;42.682;23.322;2023-12-20T10:26:00;73.23;;;33.63;;
71570;SDS011;59407;42.682;23.322;2023-12-20T10:28:25;79.15;;;34.70;;
71570;SDS011;59407;42.682;23.322;2023-12-20T10:31:02;85.85;;;36.15;;
71570;SDS011;59407;42.682;23.322;2023-12-20T10:33:30;78.63;;;37.35;;
71570;SDS011;59407;42.682;23.322;2023-12-20T10:36:15;78.53;;;34.23;;
71570;SDS011;59407;42.682;23.322;2023-12-20T10:38:43;79.55;;;34.50;;
71570;SDS011;59407;42.682;23.322;2023-12-20T10:41:11;80.85;;;36.05;;
71570;SDS011;59407;42.682;23.322;2023-12-20T10:43:40;86.55;;;37.38;;
71570;SDS011;59407;42.682;23.322;2023-12-20T10:46:10;92.25;;;35.78;;
71570;SDS011;59407;42.682;23.322;2023-12-20T10:48:37;92.50;;;38.57;;
71570;SDS011;59407;42.682;23.322;2023-12-20T10:51:06;89.53;;;39.90;;
71570;SDS011;59407;42.682;23.322;2023-12-20T10:53:32;91.40;;;36.90;;
71570;SDS011;59407;42.682;23.322;2023-12-20T10:55:59;94.15;;;36.88;;
71570;SDS011;59407;42.682;23.322;2023-12-20T10:58:34;95.97;;;41.47;;
71570;SDS011;59407;42.682;23.322;2023-12-20T11:20:03;97.43;;;37.85;;
71570;SDS011;59407;42.682;23.322;2023-12-20T11:25:49;80.60;;;36.80;;
71570;SDS011;59407;42.682;23.322;2023-12-20T11:28:28;81.82;;;35.30;;
71570;SDS011;59407;42.682;23.322;2023-12-20T11:30:58;93.38;;;37.35;;
71570;SDS011;59407;42.682;23.322;2023-12-20T11:33:35;95.97;;;35.15;;
71570;SDS011;59407;42.682;23.322;2023-12-20T11:36:14;83.38;;;35.33;;
71570;SDS011;59407;42.682;23.322;2023-12-20T11:39:00;79.80;;;35.30;;
71570;SDS011;59407;42.682;23.322;2023-12-20T11:41:33;88.30;;;36.08;;
71570;SDS011;59407;42.682;23.322;2023-12-20T11:43:59;83.93;;;36.30;;
71570;SDS011;59407;42.682;23.322;2023-12-20T11:46:26;93.80;;;37.63;;
71570;SDS011;59407;42.682;23.322;2023-12-20T11:48:54;86.07;;;35.20;;
71570;SDS011;59407;42.682;23.322;2023-12-20T11:51:41;92.67;;;36.57;;
71570;SDS011;59407;42.682;23.322;2023-12-20T11:54:29;90.18;;;37.78;;
71570;SDS011;59407;42.682;23.322;2023-12-20T12:05:18;85.13;;;37.57;;
71570;SDS011;59407;42.682;23.322;2023-12-20T12:14:41;83.47;;;33.97;;
71570;SDS011;59407;42.682;23.322;2023-12-20T12:17:11;86.10;;;36.33;;
71570;SDS011;59407;42.682;23.322;2023-12-20T12:19:42;82.97;;;38.63;;
71570;SDS011;59407;42.682;23.322;2023-12-20T12:22:32;80.32;;;34.50;;
71570;SDS011;59407;42.682;23.322;2023-12-20T12:25:12;85.25;;;38.53;;
71570;SDS011;59407;42.682;23.322;2023-12-20T12:27:40;91.05;;;40.47;;
71570;SDS011;59407;42.682;23.322;2023-12-20T12:30:15;82.85;;;36.15;;
71570;SDS011;59407;42.682;23.322;2023-12-20T12:32:46;91.43;;;36.80;;
71570;SDS011;59407;42.682;23.322;2023-12-20T12:35:13;77.45;;;33.35;;
71570;SDS011;59407;42.682;23.322;2023-12-20T12:37:40;84.28;;;36.60;;
71570;SDS011;59407;42.682;23.322;2023-12-20T12:40:10;83.03;;;35.42;;
71570;SDS011;59407;42.682;23.322;2023-12-20T12:42:39;70.45;;;31.23;;
71570;SDS011;59407;42.682;23.322;2023-12-20T12:45:07;75.97;;;34.30;;
71570;SDS011;59407;42.682;23.322;2023-12-20T12:47:34;89.05;;;37.45;;
71570;SDS011;59407;42.682;23.322;2023-12-20T12:49:59;89.53;;;39.53;;
71570;SDS011;59407;42.682;23.322;2023-12-20T12:52:28;80.57;;;35.55;;
71570;SDS011;59407;42.682;23.322;2023-12-20T12:54:54;98.87;;;39.17;;
71570;SDS011;59407;42.682;23.322;2023-12-20T12:57:19;90.90;;;36.90;;
71570;SDS011;59407;42.682;23.322;2023-12-20T12:59:45;103.27;;;41.37;;
71570;SDS011;59407;42.682;23.322;2023-12-20T13:02:14;102.93;;;40.05;;
71570;SDS011;59407;42.682;23.322;2023-12-20T13:04:40;94.00;;;39.25;;
71570;SDS011;59407;42.682;23.322;2023-12-20T13:07:07;102.22;;;41.80;;
71570;SDS011;59407;42.682;23.322;2023-12-20T13:09:37;95.10;;;39.07;;
71570;SDS011;59407;42.682;23.322;2023-12-20T13:12:03;94.20;;;38.92;;
71570;SDS011;59407;42.682;23.322;2023-12-20T13:14:32;95.70;;;38.88;;
71570;SDS011;59407;42.682;23.322;2023-12-20T13:17:01;93.15;;;39.50;;
71570;SDS011;59407;42.682;23.322;2023-12-20T13:19:26;82.13;;;35.70;;
71570;SDS011;59407;42.682;23.322;2023-12-20T13:21:55;100.90;;;38.90;;
71570;SDS011;59407;42.682;23.322;2023-12-20T13:24:21;94.55;;;39.10;;
71570;SDS011;59407;42.682;23.322;2023-12-20T13:26:46;111.67;;;41.83;;
71570;SDS011;59407;42.682;23.322;2023-12-20T13:29:12;100.63;;;37.90;;
71570;SDS011;59407;42.682;23.322;2023-12-20T13:31:37;101.57;;;40.13;;
71570;SDS011;59407;42.682;23.322;2023-12-20T13:34:04;103.55;;;39.17;;
71570;SDS011;59407;42.682;23.322;2023-12-20T13:36:30;108.80;;;41.67;;
71570;SDS011;59407;42.682;23.322;2023-12-20T13:38:56;106.63;;;40.50;;
71570;SDS011;59407;42.682;23.322;2023-12-20T13:41:22;93.90;;;39.00;;
71570;SDS011;59407;42.682;23.322;2023-12-20T13:43:51;98.90;;;40.13;;
71570;SDS011;59407;42.682;23.322;2023-12-20T13:46:17;98.05;;;39.97;;
71570;SDS011;59407;42.682;23.322;2023-12-20T13:48:43;96.50;;;37.70;;
71570;SDS011;59407;42.682;23.322;2023-12-20T13:51:08;87.67;;;36.47;;
71570;SDS011;59407;42.682;23.322;2023-12-20T13:53:34;84.32;;;34.80;;
71570;SDS011;59407;42.682;23.322;2023-12-20T13:55:59;93.07;;;37.83;;
71570;SDS011;59407;42.682;23.322;2023-12-20T13:58:25;99.93;;;38.47;;
71570;SDS011;59407;42.682;23.322;2023-12-20T14:00:51;92.82;;;36.85;;
71570;SDS011;59407;42.682;23.322;2023-12-20T14:03:17;99.47;;;36.13;;
71570;SDS011;59407;42.682;23.322;2023-12-20T14:05:44;88.07;;;36.10;;
71570;SDS011;59407;42.682;23.322;2023-12-20T14:08:10;99.22;;;37.78;;
71570;SDS011;59407;42.682;23.322;2023-12-20T14:10:36;86.55;;;36.78;;
71570;SDS011;59407;42.682;23.322;2023-12-20T14:13:01;86.73;;;34.63;;
71570;SDS011;59407;42.682;23.322;2023-12-20T14:15:27;100.67;;;36.50;;
71570;SDS011;59407;42.682;23.322;2023-12-20T14:17:52;86.07;;;35.90;;
71570;SDS011;59407;42.682;23.322;2023-12-20T14:20:18;82.30;;;34.50;;
71570;SDS011;59407;42.682;23.322;2023-12-20T14:22:44;88.63;;;39.03;;
71570;SDS011;59407;42.682;23.322;2023-12-20T14:25:15;106.78;;;38.28;;
71570;SDS011;59407;42.682;23.322;2023-12-20T14:27:43;91.78;;;35.20;;
71570;SDS011;59407;42.682;23.322;2023-12-20T14:30:09;103.25;;;39.92;;
71570;SDS011;59407;42.682;23.322;2023-12-20T14:32:36;86.13;;;34.60;;
71570;SDS011;59407;42.682;23.322;2023-12-20T14:35:04;96.00;;;35.13;;
71570;SDS011;59407;42.682;23.322;2023-12-20T14:37:30;87.50;;;32.67;;
71570;SDS011;59407;42.682;23.322;2023-12-20T14:39:56;96.55;;;35.45;;
71570;SDS011;59407;42.682;23.322;2023-12-20T14:42:22;98.43;;;38.53;;
71570;SDS011;59407;42.682;23.322;2023-12-20T14:44:48;77.63;;;33.88;;
71570;SDS011;59407;42.682;23.322;2023-12-20T14:47:14;101.78;;;38.53;;
71570;SDS011;59407;42.682;23.322;2023-12-20T14:49:40;102.28;;;39.05;;
71570;SDS011;59407;42.682;23.322;2023-12-20T14:52:06;105.63;;;39.50;;
71570;SDS011;59407;42.682;23.322;2023-12-20T14:54:33;101.03;;;39.35;;
71570;SDS011;59407;42.682;23.322;2023-12-20T14:56:58;100.57;;;39.05;;
71570;SDS011;59407;42.682;23.322;2023-12-20T14:59:25;92.97;;;39.13;;
71570;SDS011;59407;42.682;23.322;2023-12-20T15:01:52;100.72;;;39.40;;
71570;SDS011;59407;42.682;23.322;2023-12-20T15:04:17;99.40;;;39.40;;
71570;SDS011;59407;42.682;23.322;2023-12-20T15:06:43;104.28;;;38.45;;
71570;SDS011;59407;42.682;23.322;2023-12-20T15:09:10;99.68;;;37.00;;
71570;SDS011;59407;42.682;23.322;2023-12-20T15:11:37;97.67;;;38.57;;
71570;SDS011;59407;42.682;23.322;2023-12-20T15:14:18;115.45;;;42.67;;
71570;SDS011;59407;42.682;23.322;2023-12-20T15:16:47;133.52;;;44.70;;
71570;SDS011;59407;42.682;23.322;2023-12-20T15:22:45;101.88;;;40.00;;
71570;SDS011;59407;42.682;23.322;2023-12-20T15:25:11;109.53;;;44.50;;
71570;SDS011;59407;42.682;23.322;2023-12-20T15:27:37;114.53;;;44.10;;
71570;SDS011;59407;42.682;23.322;2023-12-20T15:30:04;116.18;;;47.30;;
71570;SDS011;59407;42.682;23.322;2023-12-20T15:32:32;114.47;;;43.10;;
71570;SDS011;59407;42.682;23.322;2023-12-20T15:34:57;106.07;;;43.47;;
71570;SDS011;59407;42.682;23.322;2023-12-20T15:37:23;135.10;;;46.85;;
71570;SDS011;59407;42.682;23.322;2023-12-20T15:39:52;118.13;;;46.60;;
71570;SDS011;59407;42.682;23.322;2023-12-20T15:42:21;120.82;;;46.10;;
71570;SDS011;59407;42.682;23.322;2023-12-20T15:44:48;122.55;;;50.63;;
71570;SDS011;59407;42.682;23.322;2023-12-20T16:02:40;100.15;;;41.08;;
71570;SDS011;59407;42.682;23.322;2023-12-20T16:05:07;130.05;;;48.92;;
71570;SDS011;59407;42.682;23.322;2023-12-20T16:10:28;108.40;;;41.93;;
71570;SDS011;59407;42.682;23.322;2023-12-20T16:13:43;117.95;;;43.28;;
71570;SDS011;59407;42.682;23.322;2023-12-20T16:16:11;105.13;;;39.53;;
71570;SDS011;59407;42.682;23.322;2023-12-20T16:18:47;127.88;;;44.20;;
71570;SDS011;59407;42.682;23.322;2023-12-20T16:21:16;109.88;;;39.40;;
71570;SDS011;59407;42.682;23.322;2023-12-20T16:23:49;121.78;;;43.63;;
71570;SDS011;59407;42.682;23.322;2023-12-20T16:26:48;119.78;;;42.10;;
71570;SDS011;59407;42.682;23.322;2023-12-20T16:29:15;118.28;;;45.53;;
71570;SDS011;59407;42.682;23.322;2023-12-20T16:31:42;109.88;;;39.95;;
71570;SDS011;59407;42.682;23.322;2023-12-20T16:34:08;131.68;;;43.42;;
71570;SDS011;59407;42.682;23.322;2023-12-20T16:36:55;121.15;;;43.38;;
71570;SDS011;59407;42.682;23.322;2023-12-20T16:40:05;110.15;;;42.30;;
71570;SDS011;59407;42.682;23.322;2023-12-20T16:42:32;120.90;;;45.05;;
71570;SDS011;59407;42.682;23.322;2023-12-20T16:45:22;110.70;;;39.85;;
71570;SDS011;59407;42.682;23.322;2023-12-20T16:47:49;123.70;;;44.58;;
71570;SDS011;59407;42.682;23.322;2023-12-20T16:50:14;92.93;;;40.80;;
71570;SDS011;59407;42.682;23.322;2023-12-20T16:52:40;117.50;;;42.92;;
71570;SDS011;59407;42.682;23.322;2023-12-20T16:55:15;99.25;;;35.40;;
71570;SDS011;59407;42.682;23.322;2023-12-20T16:57:44;126.90;;;47.28;;
71570;SDS011;59407;42.682;23.322;2023-12-20T17:00:13;116.80;;;42.92;;
71570;SDS011;59407;42.682;23.322;2023-12-20T17:02:45;154.25;;;46.20;;
71570;SDS011;59407;42.682;23.322;2023-12-20T17:05:12;143.60;;;44.67;;
71570;SDS011;59407;42.682;23.322;2023-12-20T17:07:40;154.82;;;47.58;;
71570;SDS011;59407;42.682;23.322;2023-12-20T17:10:08;138.15;;;44.63;;
71570;SDS011;59407;42.682;23.322;2023-12-20T17:12:35;138.87;;;45.10;;
71570;SDS011;59407;42.682;23.322;2023-12-20T17:15:01;122.38;;;45.67;;
71570;SDS011;59407;42.682;23.322;2023-12-20T17:17:28;124.90;;;43.22;;
71570;SDS011;59407;42.682;23.322;2023-12-20T17:19:56;125.20;;;46.95;;
71570;SDS011;59407;42.682;23.322;2023-12-20T17:22:21;156.47;;;50.53;;
71570;SDS011;59407;42.682;23.322;2023-12-20T17:24:48;139.40;;;46.67;;
71570;SDS011;59407;42.682;23.322;2023-12-20T17:29:49;139.35;;;50.00;;
71570;SDS011;59407;42.682;23.322;2023-12-20T17:32:16;138.90;;;50.47;;
71570;SDS011;59407;42.682;23.322;2023-12-20T17:34:42;136.02;;;49.60;;
71570;SDS011;59407;42.682;23.322;2023-12-20T17:37:08;141.23;;;49.72;;
71570;SDS011;59407;42.682;23.322;2023-12-20T17:42:44;133.52;;;49.30;;
71570;SDS011;59407;42.682;23.322;2023-12-20T17:45:11;132.30;;;47.95;;
71570;SDS011;59407;42.682;23.322;2023-12-20T17:47:43;159.25;;;52.75;;
71570;SDS011;59407;42.682;23.322;2023-12-20T17:50:12;165.35;;;54.33;;
71570;SDS011;59407;42.682;23.322;2023-12-20T17:52:38;143.10;;;47.28;;
71570;SDS011;59407;42.682;23.322;2023-12-20T17:55:04;153.20;;;49.38;;
71570;SDS011;59407;42.682;23.322;2023-12-20T17:57:32;175.80;;;54.77;;
71570;SDS011;59407;42.682;23.322;2023-12-20T18:00:10;162.70;;;53.78;;
71570;SDS011;59407;42.682;23.322;2023-12-20T18:02:41;140.95;;;48.55;;
71570;SDS011;59407;42.682;23.322;2023-12-20T18:05:07;148.23;;;53.73;;
71570;SDS011;59407;42.682;23.322;2023-12-20T18:07:33;150.00;;;50.85;;
71570;SDS011;59407;42.682;23.322;2023-12-20T18:09:58;157.87;;;53.90;;
71570;SDS011;59407;42.682;23.322;2023-12-20T18:12:24;200.13;;;65.20;;
71570;SDS011;59407;42.682;23.322;2023-12-20T18:14:50;175.95;;;55.28;;
71570;SDS011;59407;42.682;23.322;2023-12-20T18:17:18;164.48;;;62.78;;
71570;SDS011;59407;42.682;23.322;2023-12-20T18:19:44;152.85;;;56.35;;
71570;SDS011;59407;42.682;23.322;2023-12-20T18:22:10;144.77;;;54.53;;
71570;SDS011;59407;42.682;23.322;2023-12-20T18:27:32;122.82;;;49.88;;
71570;SDS011;59407;42.682;23.322;2023-12-20T18:29:59;142.80;;;51.83;;
71570;SDS011;59407;42.682;23.322;2023-12-20T18:35:40;161.82;;;54.35;;
71570;SDS011;59407;42.682;23.322;2023-12-20T18:38:10;154.45;;;50.78;;
71570;SDS011;59407;42.682;23.322;2023-12-20T18:40:37;146.32;;;54.17;;
71570;SDS011;59407;42.682;23.322;2023-12-20T18:43:12;165.93;;;54.90;;
71570;SDS011;59407;42.682;23.322;2023-12-20T18:45:38;167.18;;;53.88;;
71570;SDS011;59407;42.682;23.322;2023-12-20T18:48:04;157.02;;;52.83;;
71570;SDS011;59407;42.682;23.322;2023-12-20T18:50:29;147.97;;;52.33;;
71570;SDS011;59407;42.682;23.322;2023-12-20T18:52:56;154.43;;;54.83;;
71570;SDS011;59407;42.682;23.322;2023-12-20T18:55:29;141.02;;;51.25;;
71570;SDS011;59407;42.682;23.322;2023-12-20T18:57:58;136.35;;;52.08;;
71570;SDS011;59407;42.682;23.322;2023-12-20T19:00:24;161.13;;;54.83;;
71570;SDS011;59407;42.682;23.322;2023-12-20T19:02:51;138.73;;;53.45;;
71570;SDS011;59407;42.682;23.322;2023-12-20T19:05:19;156.05;;;53.95;;
71570;SDS011;59407;42.682;23.322;2023-12-20T19:07:53;162.95;;;55.15;;
71570;SDS011;59407;42.682;23.322;2023-12-20T19:10:20;170.05;;;56.88;;
71570;SDS011;59407;42.682;23.322;2023-12-20T19:12:46;158.60;;;55.40;;
71570;SDS011;59407;42.682;23.322;2023-12-20T19:15:12;158.25;;;54.30;;
71570;SDS011;59407;42.682;23.322;2023-12-20T19:17:43;147.98;;;56.13;;
71570;SDS011;59407;42.682;23.322;2023-12-20T19:20:20;154.55;;;54.85;;
71570;SDS011;59407;42.682;23.322;2023-12-20T19:22:47;151.82;;;53.80;;
71570;SDS011;59407;42.682;23.322;2023-12-20T19:25:18;151.50;;;58.17;;
71570;SDS011;59407;42.682;23.322;2023-12-20T19:27:45;145.07;;;54.92;;
71570;SDS011;59407;42.682;23.322;2023-12-20T19:30:12;154.15;;;54.70;;
71570;SDS011;59407;42.682;23.322;2023-12-20T19:32:38;174.52;;;58.22;;
71570;SDS011;59407;42.682;23.322;2023-12-20T19:35:10;159.65;;;57.00;;
71570;SDS011;59407;42.682;23.322;2023-12-20T19:37:36;139.63;;;54.25;;
71570;SDS011;59407;42.682;23.322;2023-12-20T19:40:02;161.10;;;60.75;;
71570;SDS011;59407;42.682;23.322;2023-12-20T19:42:29;172.03;;;60.33;;
71570;SDS011;59407;42.682;23.322;2023-12-20T19:44:56;145.40;;;56.17;;
71570;SDS011;59407;42.682;23.322;2023-12-20T19:47:22;175.23;;;61.08;;
71570;SDS011;59407;42.682;23.322;2023-12-20T19:49:48;144.45;;;53.38;;
71570;SDS011;59407;42.682;23.322;2023-12-20T19:52:14;153.23;;;54.57;;
71570;SDS011;59407;42.682;23.322;2023-12-20T19:54:42;187.70;;;59.53;;
71570;SDS011;59407;42.682;23.322;2023-12-20T19:57:09;148.38;;;60.83;;
71570;SDS011;59407;42.682;23.322;2023-12-20T19:59:34;158.17;;;58.60;;
71570;SDS011;59407;42.682;23.322;2023-12-20T20:02:01;165.85;;;59.58;;
71570;SDS011;59407;42.682;23.322;2023-12-20T20:04:28;165.55;;;57.83;;
71570;SDS011;59407;42.682;23.322;2023-12-20T20:06:55;166.50;;;56.78;;
71570;SDS011;59407;42.682;23.322;2023-12-20T20:09:27;195.95;;;62.72;;
71570;SDS011;59407;42.682;23.322;2023-12-20T20:12:14;158.50;;;52.45;;
71570;SDS011;59407;42.682;23.322;2023-12-20T20:14:39;196.80;;;55.60;;
71570;SDS011;59407;42.682;23.322;2023-12-20T20:17:05;178.90;;;55.60;;
71570;SDS011;59407;42.682;23.322;2023-12-20T20:19:31;142.48;;;51.88;;
71570;SDS011;59407;42.682;23.322;2023-12-20T20:25:18;154.30;;;52.15;;
71570;SDS011;59407;42.682;23.322;2023-12-20T20:27:44;158.38;;;50.55;;
71570;SDS011;59407;42.682;23.322;2023-12-20T20:30:11;135.50;;;49.37;;
71570;SDS011;59407;42.682;23.322;2023-12-20T20:32:38;136.20;;;48.40;;
71570;SDS011;59407;42.682;23.322;2023-12-20T20:35:04;111.32;;;42.70;;
71570;SDS011;59407;42.682;23.322;2023-12-20T20:37:32;170.35;;;51.47;;
71570;SDS011;59407;42.682;23.322;2023-12-20T20:39:59;181.75;;;53.13;;
71570;SDS011;59407;42.682;23.322;2023-12-20T20:42:27;170.90;;;50.27;;
71570;SDS011;59407;42.682;23.322;2023-12-20T20:45:12;147.18;;;49.95;;
71570;SDS011;59407;42.682;23.322;2023-12-20T20:47:40;183.95;;;54.13;;
71570;SDS011;59407;42.682;23.322;2023-12-20T20:50:07;160.38;;;53.30;;
71570;SDS011;59407;42.682;23.322;2023-12-20T20:52:34;146.85;;;53.22;;
71570;SDS011;59407;42.682;23.322;2023-12-20T20:55:00;120.20;;;49.03;;
71570;SDS011;59407;42.682;23.322;2023-12-20T20:57:27;165.05;;;49.90;;
71570;SDS011;59407;42.682;23.322;2023-12-20T20:59:56;179.95;;;54.67;;
71570;SDS011;59407;42.682;23.322;2023-12-20T21:02:24;157.13;;;54.58;;
71570;SDS011;59407;42.682;23.322;2023-12-20T21:04:50;175.40;;;55.92;;
71570;SDS011;59407;42.682;23.322;2023-12-20T21:07:16;141.18;;;51.88;;
71570;SDS011;59407;42.682;23.322;2023-12-20T21:09:42;164.90;;;54.75;;
71570;SDS011;59407;42.682;23.322;2023-12-20T21:12:07;157.67;;;52.57;;
71570;SDS011;59407;42.682;23.322;2023-12-20T21:14:34;163.07;;;54.78;;
71570;SDS011;59407;42.682;23.322;2023-12-20T21:17:02;148.55;;;55.13;;
71570;SDS011;59407;42.682;23.322;2023-12-20T21:19:32;154.40;;;53.77;;
71570;SDS011;59407;42.682;23.322;2023-12-20T21:21:58;144.45;;;49.42;;
71570;SDS011;59407;42.682;23.322;2023-12-20T21:24:25;139.95;;;52.38;;
71570;SDS011;59407;42.682;23.322;2023-12-20T21:26:52;148.07;;;53.63;;
71570;SDS011;59407;42.682;23.322;2023-12-20T21:29:18;174.30;;;56.17;;
71570;SDS011;59407;42.682;23.322;2023-12-20T21:31:43;167.13;;;56.93;;
71570;SDS011;59407;42.682;23.322;2023-12-20T21:34:10;164.32;;;54.17;;
71570;SDS011;59407;42.682;23.322;2023-12-20T21:36:36;146.38;;;52.22;;
71570;SDS011;59407;42.682;23.322;2023-12-20T21:39:04;154.98;;;54.05;;
71570;SDS011;59407;42.682;23.322;2023-12-20T21:41:30;150.90;;;54.55;;
71570;SDS011;59407;42.682;23.322;2023-12-20T21:43:57;158.50;;;53.23;;
71570;SDS011;59407;42.682;23.322;2023-12-20T21:46:22;157.23;;;50.97;;
71570;SDS011;59407;42.682;23.322;2023-12-20T21:48:51;159.20;;;54.33;;
71570;SDS011;59407;42.682;23.322;2023-12-20T21:51:16;122.73;;;46.67;;
71570;SDS011;59407;42.682;23.322;2023-12-20T21:53:43;174.75;;;58.22;;
71570;SDS011;59407;42.682;23.322;2023-12-20T21:56:10;162.88;;;56.38;;
71570;SDS011;59407;42.682;23.322;2023-12-20T21:58:39;157.40;;;55.55;;
71570;SDS011;59407;42.682;23.322;2023-12-20T22:01:05;171.57;;;55.95;;
71570;SDS011;59407;42.682;23.322;2023-12-20T22:03:37;162.40;;;54.57;;
71570;SDS011;59407;42.682;23.322;2023-12-20T22:06:04;170.65;;;54.55;;
71570;SDS011;59407;42.682;23.322;2023-12-20T22:08:31;165.10;;;54.15;;
71570;SDS011;59407;42.682;23.322;2023-12-20T22:11:01;154.00;;;51.72;;